Epic Balta — 9VED8 — position and weather

sailwx.info

Track history (hours):
 
Tides and Currents Weather Stations Pressure Air Temp Water Temp Dewpoint Dewpoint Depression Visibility Wind Speed Wind Dir Waves Ship Positions

Epic Balta

Last reported at 2016-Jan-04 15:32 UTC. Time now 2016-Feb-06 23:25 UTC.
Position N 17°05' W 062°16'.
Warning: this ship's position is 33 days out of date.

Length 100 m; draft 5.4 m.

Type: Ship. MMSI: 565525000.

Date/timePositionNaut miles runAvg speedWind from/ knotsBaromVisibWave heightAir tempDewpointWater temp
2016-Jan-04 15:32N 17°05' W 062°16'1313.0
2016-Jan-04 14:33N 17°14' W 062°06'1312.5
2016-Jan-04 13:34N 17°10' W 061°54'2 2.0
2016-Jan-04 12:33N 17°09' W 061°52'0 0.0
2016-Jan-04 11:33N 17°09' W 061°52'0 0.0
2016-Jan-04 10:33N 17°09' W 061°52'0 0.0
2016-Jan-04 09:33N 17°09' W 061°52'0 0.0
2016-Jan-04 08:33N 17°09' W 061°52'0 0.0
2016-Jan-04 07:33N 17°09' W 061°52'0 0.0
2016-Jan-04 06:33N 17°09' W 061°52'0 0.0
2016-Jan-04 05:33N 17°09' W 061°52'0 0.0
2016-Jan-04 04:33N 17°09' W 061°52'0 0.0
2016-Jan-04 03:27N 17°09' W 061°52'0 0.0
2016-Jan-04 02:30N 17°09' W 061°52'0 0.0
2016-Jan-04 01:33N 17°09' W 061°52'0 0.0
2016-Jan-04 00:33N 17°09' W 061°52'0 0.0
2016-Jan-03 23:33N 17°09' W 061°52'0 0.0
2016-Jan-03 22:33N 17°09' W 061°52'0 0.0
2016-Jan-03 21:33N 17°09' W 061°52'0 0.0
2016-Jan-03 20:33N 17°09' W 061°52'0 0.0
2016-Jan-03 19:33N 17°09' W 061°52'0 0.0
2016-Jan-03 18:33N 17°09' W 061°52'0 0.0
2016-Jan-03 17:33N 17°09' W 061°52'0 0.0
2016-Jan-03 16:33N 17°09' W 061°52'0 0.0
2016-Jan-03 15:33N 17°09' W 061°52'0 0.0
2016-Jan-03 14:33N 17°09' W 061°52'0 0.0
2016-Jan-03 13:30N 17°09' W 061°52'0 0.0
2016-Jan-03 12:33N 17°09' W 061°52'1 1.5
2016-Jan-03 11:34N 17°10' W 061°54'5 4.5
2016-Jan-03 10:33N 17°10' W 061°58'3 2.6
2016-Jan-03 09:34N 17°10' W 062°01'1 0.5
2016-Jan-03 08:33N 17°11' W 062°00'1 0.6
2016-Jan-03 07:33N 17°11' W 061°60'1 0.7
2016-Jan-03 06:34N 17°11' W 061°59'1 0.7
2016-Jan-03 05:34N 17°11' W 061°59'5 5.5
2016-Jan-03 04:34N 17°13' W 062°04'10 9.9
2016-Jan-03 03:33N 17°08' W 062°13'  
Track history (hours):
 
Tides and Currents Weather Stations Pressure Air Temp Water Temp Dewpoint Dewpoint Depression Visibility Wind Speed Wind Dir Waves Ship Positions

Epic Balta

Last reported at 2016-Jan-04 15:32 UTC. Time now 2016-Feb-06 23:25 UTC.
Position N 17°05' W 062°16'.
Warning: this ship's position is 33 days out of date.

Length 100 m; draft 5.4 m.

Type: Ship. MMSI: 565525000.

Date/timePositionNaut miles runAvg speedWind from/ knotsBaromVisibWave heightAir tempDewpointWater temp
2016-Jan-04 15:32N 17°05' W 062°16'1313.0
2016-Jan-04 14:33N 17°14' W 062°06'1312.5
2016-Jan-04 13:34N 17°10' W 061°54'2 2.0
2016-Jan-04 12:33N 17°09' W 061°52'0 0.0
2016-Jan-04 11:33N 17°09' W 061°52'0 0.0
2016-Jan-04 10:33N 17°09' W 061°52'0 0.0
2016-Jan-04 09:33N 17°09' W 061°52'0 0.0
2016-Jan-04 08:33N 17°09' W 061°52'0 0.0
2016-Jan-04 07:33N 17°09' W 061°52'0 0.0
2016-Jan-04 06:33N 17°09' W 061°52'0 0.0
2016-Jan-04 05:33N 17°09' W 061°52'0 0.0
2016-Jan-04 04:33N 17°09' W 061°52'0 0.0
2016-Jan-04 03:27N 17°09' W 061°52'0 0.0
2016-Jan-04 02:30N 17°09' W 061°52'0 0.0
2016-Jan-04 01:33N 17°09' W 061°52'0 0.0
2016-Jan-04 00:33N 17°09' W 061°52'0 0.0
2016-Jan-03 23:33N 17°09' W 061°52'0 0.0
2016-Jan-03 22:33N 17°09' W 061°52'0 0.0
2016-Jan-03 21:33N 17°09' W 061°52'0 0.0
2016-Jan-03 20:33N 17°09' W 061°52'0 0.0
2016-Jan-03 19:33N 17°09' W 061°52'0 0.0
2016-Jan-03 18:33N 17°09' W 061°52'0 0.0
2016-Jan-03 17:33N 17°09' W 061°52'0 0.0
2016-Jan-03 16:33N 17°09' W 061°52'0 0.0
2016-Jan-03 15:33N 17°09' W 061°52'0 0.0
2016-Jan-03 14:33N 17°09' W 061°52'0 0.0
2016-Jan-03 13:30N 17°09' W 061°52'0 0.0
2016-Jan-03 12:33N 17°09' W 061°52'1 1.5
2016-Jan-03 11:34N 17°10' W 061°54'5 4.5
2016-Jan-03 10:33N 17°10' W 061°58'3 2.6
2016-Jan-03 09:34N 17°10' W 062°01'1 0.5
2016-Jan-03 08:33N 17°11' W 062°00'1 0.6
2016-Jan-03 07:33N 17°11' W 061°60'1 0.7
2016-Jan-03 06:34N 17°11' W 061°59'1 0.7
2016-Jan-03 05:34N 17°11' W 061°59'5 5.5
2016-Jan-03 04:34N 17°13' W 062°04'10 9.9
2016-Jan-03 03:33N 17°08' W 062°13'  

Dump ship's entire track history